sensor_id;sensor_type;location;lat;lon;timestamp;temperature;humidity
8422;DHT22;4248;48.196;10.924;2023-07-28T00:00:58;15.50;42.50
8422;DHT22;4248;48.196;10.924;2023-07-28T00:03:24;15.50;42.80
8422;DHT22;4248;48.196;10.924;2023-07-28T00:05:49;15.40;43.10
8422;DHT22;4248;48.196;10.924;2023-07-28T00:08:15;15.40;43.40
8422;DHT22;4248;48.196;10.924;2023-07-28T00:10:41;15.30;43.30
8422;DHT22;4248;48.196;10.924;2023-07-28T00:13:07;15.20;43.20
8422;DHT22;4248;48.196;10.924;2023-07-28T00:15:33;15.10;43.10
8422;DHT22;4248;48.196;10.924;2023-07-28T00:17:59;15.00;44.00
8422;DHT22;4248;48.196;10.924;2023-07-28T00:20:25;15.00;44.30
8422;DHT22;4248;48.196;10.924;2023-07-28T00:22:51;14.90;44.40
8422;DHT22;4248;48.196;10.924;2023-07-28T00:25:17;14.90;44.80
8422;DHT22;4248;48.196;10.924;2023-07-28T00:27:43;14.80;43.80
8422;DHT22;4248;48.196;10.924;2023-07-28T00:30:10;15.00;45.20
8422;DHT22;4248;48.196;10.924;2023-07-28T00:32:36;14.80;45.20
8422;DHT22;4248;48.196;10.924;2023-07-28T00:35:02;14.70;45.50
8422;DHT22;4248;48.196;10.924;2023-07-28T00:37:27;14.70;45.70
8422;DHT22;4248;48.196;10.924;2023-07-28T00:39:53;14.70;45.70
8422;DHT22;4248;48.196;10.924;2023-07-28T00:42:18;14.60;46.00
8422;DHT22;4248;48.196;10.924;2023-07-28T00:44:44;14.60;46.10
8422;DHT22;4248;48.196;10.924;2023-07-28T00:47:09;14.50;46.20
8422;DHT22;4248;48.196;10.924;2023-07-28T00:49:35;14.40;46.50
8422;DHT22;4248;48.196;10.924;2023-07-28T00:52:00;14.40;46.70
8422;DHT22;4248;48.196;10.924;2023-07-28T00:54:26;14.40;46.80
8422;DHT22;4248;48.196;10.924;2023-07-28T00:56:52;14.30;46.90
8422;DHT22;4248;48.196;10.924;2023-07-28T00:59:18;14.30;47.00
8422;DHT22;4248;48.196;10.924;2023-07-28T01:01:43;14.20;46.90
8422;DHT22;4248;48.196;10.924;2023-07-28T01:04:09;14.20;47.00
8422;DHT22;4248;48.196;10.924;2023-07-28T01:06:57;14.20;48.30
8422;DHT22;4248;48.196;10.924;2023-07-28T01:09:36;14.20;47.20
8422;DHT22;4248;48.196;10.924;2023-07-28T01:12:07;14.20;47.20
8422;DHT22;4248;48.196;10.924;2023-07-28T01:14:34;14.10;47.00
8422;DHT22;4248;48.196;10.924;2023-07-28T01:17:00;14.20;47.10
8422;DHT22;4248;48.196;10.924;2023-07-28T01:19:26;14.20;46.90
8422;DHT22;4248;48.196;10.924;2023-07-28T01:22:24;14.20;46.70
8422;DHT22;4248;48.196;10.924;2023-07-28T01:27:29;14.40;46.60
8422;DHT22;4248;48.196;10.924;2023-07-28T01:29:54;14.40;46.60
8422;DHT22;4248;48.196;10.924;2023-07-28T01:32:20;14.40;47.70
8422;DHT22;4248;48.196;10.924;2023-07-28T01:34:45;14.40;46.50
8422;DHT22;4248;48.196;10.924;2023-07-28T01:37:11;14.40;46.50
8422;DHT22;4248;48.196;10.924;2023-07-28T01:39:36;14.40;46.40
8422;DHT22;4248;48.196;10.924;2023-07-28T01:42:02;14.40;46.40
8422;DHT22;4248;48.196;10.924;2023-07-28T01:44:28;14.40;46.50
8422;DHT22;4248;48.196;10.924;2023-07-28T01:46:54;14.40;46.60
8422;DHT22;4248;48.196;10.924;2023-07-28T01:49:19;14.50;46.60
8422;DHT22;4248;48.196;10.924;2023-07-28T01:51:45;14.50;46.50
8422;DHT22;4248;48.196;10.924;2023-07-28T01:54:11;14.40;46.50
8422;DHT22;4248;48.196;10.924;2023-07-28T01:56:36;14.50;46.70
8422;DHT22;4248;48.196;10.924;2023-07-28T01:59:02;14.40;47.20
8422;DHT22;4248;48.196;10.924;2023-07-28T02:01:27;14.40;46.80
8422;DHT22;4248;48.196;10.924;2023-07-28T02:03:53;14.40;47.00
8422;DHT22;4248;48.196;10.924;2023-07-28T02:06:18;14.40;47.00
8422;DHT22;4248;48.196;10.924;2023-07-28T02:08:44;14.40;47.00
8422;DHT22;4248;48.196;10.924;2023-07-28T02:11:09;14.30;47.00
8422;DHT22;4248;48.196;10.924;2023-07-28T02:13:35;14.40;47.40
8422;DHT22;4248;48.196;10.924;2023-07-28T02:16:00;14.30;47.10
8422;DHT22;4248;48.196;10.924;2023-07-28T02:18:26;14.40;47.10
8422;DHT22;4248;48.196;10.924;2023-07-28T02:20:52;14.40;47.10
8422;DHT22;4248;48.196;10.924;2023-07-28T02:23:17;14.40;47.00
8422;DHT22;4248;48.196;10.924;2023-07-28T02:25:43;14.40;46.20
8422;DHT22;4248;48.196;10.924;2023-07-28T02:28:10;14.40;47.10
8422;DHT22;4248;48.196;10.924;2023-07-28T02:30:35;14.40;47.20
8422;DHT22;4248;48.196;10.924;2023-07-28T02:33:01;14.40;47.30
8422;DHT22;4248;48.196;10.924;2023-07-28T02:35:26;14.40;46.50
8422;DHT22;4248;48.196;10.924;2023-07-28T02:37:52;14.30;47.40
8422;DHT22;4248;48.196;10.924;2023-07-28T02:40:18;14.40;47.50
8422;DHT22;4248;48.196;10.924;2023-07-28T02:42:43;14.40;47.70
8422;DHT22;4248;48.196;10.924;2023-07-28T02:45:09;14.60;47.70
8422;DHT22;4248;48.196;10.924;2023-07-28T02:47:35;14.50;46.50
8422;DHT22;4248;48.196;10.924;2023-07-28T02:50:01;14.50;47.30
8422;DHT22;4248;48.196;10.924;2023-07-28T02:52:27;14.60;47.20
8422;DHT22;4248;48.196;10.924;2023-07-28T02:54:52;14.60;47.00
8422;DHT22;4248;48.196;10.924;2023-07-28T02:57:18;14.50;46.10
8422;DHT22;4248;48.196;10.924;2023-07-28T02:59:43;14.50;47.20
8422;DHT22;4248;48.196;10.924;2023-07-28T03:02:09;14.50;47.50
8422;DHT22;4248;48.196;10.924;2023-07-28T03:04:35;14.60;47.70
8422;DHT22;4248;48.196;10.924;2023-07-28T03:07:00;14.40;47.70
8422;DHT22;4248;48.196;10.924;2023-07-28T03:09:26;14.40;47.80
8422;DHT22;4248;48.196;10.924;2023-07-28T03:11:51;14.40;47.80
8422;DHT22;4248;48.196;10.924;2023-07-28T03:14:17;14.40;47.90
8422;DHT22;4248;48.196;10.924;2023-07-28T03:16:42;14.50;48.30
8422;DHT22;4248;48.196;10.924;2023-07-28T03:19:08;14.50;48.40
8422;DHT22;4248;48.196;10.924;2023-07-28T03:21:33;14.50;48.50
8422;DHT22;4248;48.196;10.924;2023-07-28T03:23:59;14.50;48.70
8422;DHT22;4248;48.196;10.924;2023-07-28T03:26:25;14.50;49.00
8422;DHT22;4248;48.196;10.924;2023-07-28T03:28:50;14.60;49.10
8422;DHT22;4248;48.196;10.924;2023-07-28T03:31:16;14.60;49.10
8422;DHT22;4248;48.196;10.924;2023-07-28T03:33:41;14.60;49.00
8422;DHT22;4248;48.196;10.924;2023-07-28T03:36:07;14.70;49.00
8422;DHT22;4248;48.196;10.924;2023-07-28T03:38:33;14.70;48.90
8422;DHT22;4248;48.196;10.924;2023-07-28T03:40:59;14.80;48.80
8422;DHT22;4248;48.196;10.924;2023-07-28T03:43:25;14.80;48.90
8422;DHT22;4248;48.196;10.924;2023-07-28T03:45:50;14.70;48.80
8422;DHT22;4248;48.196;10.924;2023-07-28T03:48:16;14.70;49.10
8422;DHT22;4248;48.196;10.924;2023-07-28T03:50:41;14.60;49.30
8422;DHT22;4248;48.196;10.924;2023-07-28T03:53:07;14.50;49.50
8422;DHT22;4248;48.196;10.924;2023-07-28T03:55:32;14.60;48.60
8422;DHT22;4248;48.196;10.924;2023-07-28T03:57:58;14.60;49.70
8422;DHT22;4248;48.196;10.924;2023-07-28T04:00:23;14.70;49.40
8422;DHT22;4248;48.196;10.924;2023-07-28T04:02:49;14.80;49.30
8422;DHT22;4248;48.196;10.924;2023-07-28T04:05:14;15.00;48.80
8422;DHT22;4248;48.196;10.924;2023-07-28T04:07:40;15.10;48.10
8422;DHT22;4248;48.196;10.924;2023-07-28T04:10:06;15.30;47.90
8422;DHT22;4248;48.196;10.924;2023-07-28T04:12:32;15.40;47.60
8422;DHT22;4248;48.196;10.924;2023-07-28T04:14:57;15.40;47.70
8422;DHT22;4248;48.196;10.924;2023-07-28T04:17:23;15.50;47.70
8422;DHT22;4248;48.196;10.924;2023-07-28T04:19:48;15.60;47.60
8422;DHT22;4248;48.196;10.924;2023-07-28T04:22:14;15.70;47.40
8422;DHT22;4248;48.196;10.924;2023-07-28T04:24:43;15.90;47.00
8422;DHT22;4248;48.196;10.924;2023-07-28T04:27:09;16.10;46.60
8422;DHT22;4248;48.196;10.924;2023-07-28T04:29:34;16.30;46.40
8422;DHT22;4248;48.196;10.924;2023-07-28T04:32:00;16.40;46.30
8422;DHT22;4248;48.196;10.924;2023-07-28T04:34:26;16.60;46.10
8422;DHT22;4248;48.196;10.924;2023-07-28T04:36:51;16.80;45.60
8422;DHT22;4248;48.196;10.924;2023-07-28T04:39:17;16.90;45.30
8422;DHT22;4248;48.196;10.924;2023-07-28T04:41:42;17.00;45.50
8422;DHT22;4248;48.196;10.924;2023-07-28T04:44:08;17.00;45.60
8422;DHT22;4248;48.196;10.924;2023-07-28T04:46:33;17.20;46.00
8422;DHT22;4248;48.196;10.924;2023-07-28T04:48:59;17.10;46.10
8422;DHT22;4248;48.196;10.924;2023-07-28T04:51:24;17.10;46.40
8422;DHT22;4248;48.196;10.924;2023-07-28T04:53:50;17.10;46.70
8422;DHT22;4248;48.196;10.924;2023-07-28T04:56:15;17.10;46.90
8422;DHT22;4248;48.196;10.924;2023-07-28T04:58:41;17.10;47.20
8422;DHT22;4248;48.196;10.924;2023-07-28T05:01:06;17.20;46.80
8422;DHT22;4248;48.196;10.924;2023-07-28T05:03:34;17.40;46.20
8422;DHT22;4248;48.196;10.924;2023-07-28T05:06:00;17.60;45.50
8422;DHT22;4248;48.196;10.924;2023-07-28T05:08:25;17.70;45.50
8422;DHT22;4248;48.196;10.924;2023-07-28T05:10:51;17.90;45.20
8422;DHT22;4248;48.196;10.924;2023-07-28T05:13:16;18.00;44.80
8422;DHT22;4248;48.196;10.924;2023-07-28T05:15:42;18.20;43.00
8422;DHT22;4248;48.196;10.924;2023-07-28T05:18:08;18.20;44.00
8422;DHT22;4248;48.196;10.924;2023-07-28T05:20:33;18.40;43.80
8422;DHT22;4248;48.196;10.924;2023-07-28T05:22:59;18.50;43.40
8422;DHT22;4248;48.196;10.924;2023-07-28T05:25:24;18.60;43.30
8422;DHT22;4248;48.196;10.924;2023-07-28T05:27:50;18.70;42.80
8422;DHT22;4248;48.196;10.924;2023-07-28T05:30:16;18.80;42.60
8422;DHT22;4248;48.196;10.924;2023-07-28T05:32:41;18.80;41.40
8422;DHT22;4248;48.196;10.924;2023-07-28T05:35:07;18.80;42.50
8422;DHT22;4248;48.196;10.924;2023-07-28T05:37:33;19.00;42.30
8422;DHT22;4248;48.196;10.924;2023-07-28T05:39:58;19.50;40.20
8422;DHT22;4248;48.196;10.924;2023-07-28T05:42:24;19.50;41.10
8422;DHT22;4248;48.196;10.924;2023-07-28T05:44:50;20.00;40.20
8422;DHT22;4248;48.196;10.924;2023-07-28T05:47:18;21.90;35.80
8422;DHT22;4248;48.196;10.924;2023-07-28T05:49:43;22.00;34.50
8422;DHT22;4248;48.196;10.924;2023-07-28T05:52:09;23.10;31.80
8422;DHT22;4248;48.196;10.924;2023-07-28T05:54:34;23.30;30.10
8422;DHT22;4248;48.196;10.924;2023-07-28T05:57:00;22.90;31.00
8422;DHT22;4248;48.196;10.924;2023-07-28T05:59:25;23.20;30.00
8422;DHT22;4248;48.196;10.924;2023-07-28T06:01:51;23.80;28.60
8422;DHT22;4248;48.196;10.924;2023-07-28T06:04:17;23.50;28.30
8422;DHT22;4248;48.196;10.924;2023-07-28T06:06:42;23.20;27.90
8422;DHT22;4248;48.196;10.924;2023-07-28T06:09:08;23.70;27.40
8422;DHT22;4248;48.196;10.924;2023-07-28T06:11:33;24.30;25.50
8422;DHT22;4248;48.196;10.924;2023-07-28T06:13:59;24.00;25.30
8422;DHT22;4248;48.196;10.924;2023-07-28T06:16:24;23.50;25.90
8422;DHT22;4248;48.196;10.924;2023-07-28T06:18:50;23.10;26.30
8422;DHT22;4248;48.196;10.924;2023-07-28T06:21:15;22.70;26.80
8422;DHT22;4248;48.196;10.924;2023-07-28T06:23:41;22.50;27.10
8422;DHT22;4248;48.196;10.924;2023-07-28T06:26:07;22.30;26.80
8422;DHT22;4248;48.196;10.924;2023-07-28T06:28:32;22.20;26.80
8422;DHT22;4248;48.196;10.924;2023-07-28T06:30:58;22.10;26.80
8422;DHT22;4248;48.196;10.924;2023-07-28T06:33:24;22.10;26.90
8422;DHT22;4248;48.196;10.924;2023-07-28T06:35:50;22.20;27.10
8422;DHT22;4248;48.196;10.924;2023-07-28T06:38:18;22.60;26.10
8422;DHT22;4248;48.196;10.924;2023-07-28T06:40:43;22.90;25.50
8422;DHT22;4248;48.196;10.924;2023-07-28T06:43:10;23.00;25.10
8422;DHT22;4248;48.196;10.924;2023-07-28T06:45:36;23.10;23.80
8422;DHT22;4248;48.196;10.924;2023-07-28T06:48:02;23.00;24.60
8422;DHT22;4248;48.196;10.924;2023-07-28T06:50:29;23.10;24.60
8422;DHT22;4248;48.196;10.924;2023-07-28T06:52:55;23.10;24.60
8422;DHT22;4248;48.196;10.924;2023-07-28T06:55:21;23.30;24.80
8422;DHT22;4248;48.196;10.924;2023-07-28T06:57:47;23.50;24.80
8422;DHT22;4248;48.196;10.924;2023-07-28T07:00:13;23.40;23.90
8422;DHT22;4248;48.196;10.924;2023-07-28T07:02:40;23.40;23.90
8422;DHT22;4248;48.196;10.924;2023-07-28T07:05:06;23.50;23.50
8422;DHT22;4248;48.196;10.924;2023-07-28T07:07:32;23.50;23.10
8422;DHT22;4248;48.196;10.924;2023-07-28T07:09:58;23.60;22.70
8422;DHT22;4248;48.196;10.924;2023-07-28T07:12:24;23.80;22.30
8422;DHT22;4248;48.196;10.924;2023-07-28T07:14:50;23.90;22.00
8422;DHT22;4248;48.196;10.924;2023-07-28T07:17:15;24.40;22.30
8422;DHT22;4248;48.196;10.924;2023-07-28T07:19:41;24.00;21.60
8422;DHT22;4248;48.196;10.924;2023-07-28T07:22:06;23.80;20.80
8422;DHT22;4248;48.196;10.924;2023-07-28T07:24:32;23.80;21.50
8422;DHT22;4248;48.196;10.924;2023-07-28T07:26:58;23.70;21.40
8422;DHT22;4248;48.196;10.924;2023-07-28T07:29:24;23.70;21.40
8422;DHT22;4248;48.196;10.924;2023-07-28T07:31:49;23.80;21.30
8422;DHT22;4248;48.196;10.924;2023-07-28T07:34:20;23.70;21.20
8422;DHT22;4248;48.196;10.924;2023-07-28T07:36:46;23.70;21.40
8422;DHT22;4248;48.196;10.924;2023-07-28T07:39:11;23.50;21.30
8422;DHT22;4248;48.196;10.924;2023-07-28T07:41:37;23.70;21.50
8422;DHT22;4248;48.196;10.924;2023-07-28T07:44:02;24.00;21.30
8422;DHT22;4248;48.196;10.924;2023-07-28T07:46:28;24.40;20.60
8422;DHT22;4248;48.196;10.924;2023-07-28T07:48:54;24.90;19.90
8422;DHT22;4248;48.196;10.924;2023-07-28T07:51:19;24.90;19.50
8422;DHT22;4248;48.196;10.924;2023-07-28T07:53:45;25.00;19.40
8422;DHT22;4248;48.196;10.924;2023-07-28T07:56:10;25.00;19.70
8422;DHT22;4248;48.196;10.924;2023-07-28T07:58:36;25.20;19.40
8422;DHT22;4248;48.196;10.924;2023-07-28T08:01:02;25.40;19.00
8422;DHT22;4248;48.196;10.924;2023-07-28T08:03:28;25.50;19.20
8422;DHT22;4248;48.196;10.924;2023-07-28T08:05:54;25.50;18.50
8422;DHT22;4248;48.196;10.924;2023-07-28T08:08:19;25.70;18.30
8422;DHT22;4248;48.196;10.924;2023-07-28T08:10:46;25.80;18.30
8422;DHT22;4248;48.196;10.924;2023-07-28T08:13:12;25.70;18.10
8422;DHT22;4248;48.196;10.924;2023-07-28T08:15:38;26.10;16.30
8422;DHT22;4248;48.196;10.924;2023-07-28T08:18:04;26.30;17.20
8422;DHT22;4248;48.196;10.924;2023-07-28T08:20:29;26.70;15.80
8422;DHT22;4248;48.196;10.924;2023-07-28T08:22:55;27.20;15.10
8422;DHT22;4248;48.196;10.924;2023-07-28T08:25:21;27.30;14.30
8422;DHT22;4248;48.196;10.924;2023-07-28T08:27:48;27.40;13.90
8422;DHT22;4248;48.196;10.924;2023-07-28T08:30:13;27.30;13.90
8422;DHT22;4248;48.196;10.924;2023-07-28T08:32:41;27.20;13.80
8422;DHT22;4248;48.196;10.924;2023-07-28T08:35:07;27.20;13.80
8422;DHT22;4248;48.196;10.924;2023-07-28T08:37:33;27.10;14.00
8422;DHT22;4248;48.196;10.924;2023-07-28T08:39:59;26.90;14.00
8422;DHT22;4248;48.196;10.924;2023-07-28T08:42:24;26.70;14.20
8422;DHT22;4248;48.196;10.924;2023-07-28T08:44:50;26.40;15.10
8422;DHT22;4248;48.196;10.924;2023-07-28T08:47:18;26.20;15.80
8422;DHT22;4248;48.196;10.924;2023-07-28T08:49:44;25.90;15.30
8422;DHT22;4248;48.196;10.924;2023-07-28T08:52:10;25.80;15.30
8422;DHT22;4248;48.196;10.924;2023-07-28T08:54:35;25.60;15.20
8422;DHT22;4248;48.196;10.924;2023-07-28T08:57:01;26.00;15.80
8422;DHT22;4248;48.196;10.924;2023-07-28T08:59:27;25.70;15.40
8422;DHT22;4248;48.196;10.924;2023-07-28T09:01:54;25.80;15.30
8422;DHT22;4248;48.196;10.924;2023-07-28T09:04:21;25.80;15.30
8422;DHT22;4248;48.196;10.924;2023-07-28T09:06:48;25.80;15.30
8422;DHT22;4248;48.196;10.924;2023-07-28T09:09:15;26.00;15.40
8422;DHT22;4248;48.196;10.924;2023-07-28T09:11:54;26.30;14.80
8422;DHT22;4248;48.196;10.924;2023-07-28T09:14:21;26.60;14.10
8422;DHT22;4248;48.196;10.924;2023-07-28T09:16:49;26.60;14.10
8422;DHT22;4248;48.196;10.924;2023-07-28T09:19:15;26.40;14.20
8422;DHT22;4248;48.196;10.924;2023-07-28T09:21:43;26.40;14.40
8422;DHT22;4248;48.196;10.924;2023-07-28T09:24:10;26.50;13.90
8422;DHT22;4248;48.196;10.924;2023-07-28T09:26:40;26.80;13.70
8422;DHT22;4248;48.196;10.924;2023-07-28T09:29:20;26.80;13.10
8422;DHT22;4248;48.196;10.924;2023-07-28T09:31:47;27.10;12.80
8422;DHT22;4248;48.196;10.924;2023-07-28T09:34:26;27.20;12.70
8422;DHT22;4248;48.196;10.924;2023-07-28T09:36:58;27.10;11.80
8422;DHT22;4248;48.196;10.924;2023-07-28T09:39:24;27.10;12.80
8422;DHT22;4248;48.196;10.924;2023-07-28T09:44:17;26.60;12.30
8422;DHT22;4248;48.196;10.924;2023-07-28T09:46:56;26.10;12.80
8422;DHT22;4248;48.196;10.924;2023-07-28T09:49:43;26.00;12.70
8422;DHT22;4248;48.196;10.924;2023-07-28T09:52:11;25.60;14.40
8422;DHT22;4248;48.196;10.924;2023-07-28T09:54:40;25.70;14.40
8422;DHT22;4248;48.196;10.924;2023-07-28T09:57:13;25.90;13.40
8422;DHT22;4248;48.196;10.924;2023-07-28T09:59:40;26.10;13.90
8422;DHT22;4248;48.196;10.924;2023-07-28T10:02:07;26.10;13.80
8422;DHT22;4248;48.196;10.924;2023-07-28T10:04:33;26.00;14.00
8422;DHT22;4248;48.196;10.924;2023-07-28T10:06:59;25.70;13.30
8422;DHT22;4248;48.196;10.924;2023-07-28T10:09:27;25.60;14.40
8422;DHT22;4248;48.196;10.924;2023-07-28T10:11:54;25.60;14.50
8422;DHT22;4248;48.196;10.924;2023-07-28T10:14:30;25.50;14.60
8422;DHT22;4248;48.196;10.924;2023-07-28T10:17:00;25.40;13.80
8422;DHT22;4248;48.196;10.924;2023-07-28T10:19:33;25.50;14.50
8422;DHT22;4248;48.196;10.924;2023-07-28T10:22:01;25.60;14.30
8422;DHT22;4248;48.196;10.924;2023-07-28T10:24:56;25.70;14.00
8422;DHT22;4248;48.196;10.924;2023-07-28T10:30:01;25.70;14.20
8422;DHT22;4248;48.196;10.924;2023-07-28T10:32:28;26.00;13.60
8422;DHT22;4248;48.196;10.924;2023-07-28T10:35:25;25.80;12.60
8422;DHT22;4248;48.196;10.924;2023-07-28T10:37:53;25.60;13.10
8422;DHT22;4248;48.196;10.924;2023-07-28T10:42:54;25.30;13.90
8422;DHT22;4248;48.196;10.924;2023-07-28T10:45:23;25.70;14.10
8422;DHT22;4248;48.196;10.924;2023-07-28T10:47:49;25.50;13.40
8422;DHT22;4248;48.196;10.924;2023-07-28T10:50:15;25.60;14.30
8422;DHT22;4248;48.196;10.924;2023-07-28T10:52:45;25.90;14.10
8422;DHT22;4248;48.196;10.924;2023-07-28T10:55:21;26.10;13.80
8422;DHT22;4248;48.196;10.924;2023-07-28T10:57:48;26.30;12.80
8422;DHT22;4248;48.196;10.924;2023-07-28T11:00:20;26.40;13.50
8422;DHT22;4248;48.196;10.924;2023-07-28T11:02:51;26.40;12.70
8422;DHT22;4248;48.196;10.924;2023-07-28T11:05:24;26.50;13.60
8422;DHT22;4248;48.196;10.924;2023-07-28T11:07:54;26.60;12.10
8422;DHT22;4248;48.196;10.924;2023-07-28T11:12:48;26.30;11.20
8422;DHT22;4248;48.196;10.924;2023-07-28T11:15:15;26.30;12.20
8422;DHT22;4248;48.196;10.924;2023-07-28T11:17:49;26.20;10.70
8422;DHT22;4248;48.196;10.924;2023-07-28T11:20:25;26.30;11.80
8422;DHT22;4248;48.196;10.924;2023-07-28T11:22:55;26.90;11.70
8422;DHT22;4248;48.196;10.924;2023-07-28T11:25:22;27.50;10.80
8422;DHT22;4248;48.196;10.924;2023-07-28T11:27:48;27.20;9.30
8422;DHT22;4248;48.196;10.924;2023-07-28T11:30:16;27.20;10.70
8422;DHT22;4248;48.196;10.924;2023-07-28T11:32:47;27.20;11.00
8422;DHT22;4248;48.196;10.924;2023-07-28T11:35:15;27.70;9.80
8422;DHT22;4248;48.196;10.924;2023-07-28T11:37:42;27.70;9.30
8422;DHT22;4248;48.196;10.924;2023-07-28T11:40:10;27.80;10.30
8422;DHT22;4248;48.196;10.924;2023-07-28T11:43:06;27.40;9.70
8422;DHT22;4248;48.196;10.924;2023-07-28T11:45:31;27.20;11.00
8422;DHT22;4248;48.196;10.924;2023-07-28T11:47:59;27.10;10.20
8422;DHT22;4248;48.196;10.924;2023-07-28T11:50:28;27.30;10.90
8422;DHT22;4248;48.196;10.924;2023-07-28T11:52:54;27.50;10.50
8422;DHT22;4248;48.196;10.924;2023-07-28T11:55:20;27.60;9.30
8422;DHT22;4248;48.196;10.924;2023-07-28T11:57:47;27.60;9.20
8422;DHT22;4248;48.196;10.924;2023-07-28T12:00:13;27.50;10.40
8422;DHT22;4248;48.196;10.924;2023-07-28T12:02:42;27.30;10.50
8422;DHT22;4248;48.196;10.924;2023-07-28T12:05:15;27.40;10.60
8422;DHT22;4248;48.196;10.924;2023-07-28T12:07:47;27.60;9.20
8422;DHT22;4248;48.196;10.924;2023-07-28T12:10:13;27.60;10.50
8422;DHT22;4248;48.196;10.924;2023-07-28T12:12:44;27.60;9.50
8422;DHT22;4248;48.196;10.924;2023-07-28T12:15:23;27.40;8.90
8422;DHT22;4248;48.196;10.924;2023-07-28T12:20:44;27.10;10.30
8422;DHT22;4248;48.196;10.924;2023-07-28T12:23:13;27.10;10.60
8422;DHT22;4248;48.196;10.924;2023-07-28T12:25:40;27.30;9.40
8422;DHT22;4248;48.196;10.924;2023-07-28T12:28:05;27.20;10.20
8422;DHT22;4248;48.196;10.924;2023-07-28T12:30:32;27.50;9.10
8422;DHT22;4248;48.196;10.924;2023-07-28T12:32:58;27.40;9.90
8422;DHT22;4248;48.196;10.924;2023-07-28T12:35:24;27.50;9.50
8422;DHT22;4248;48.196;10.924;2023-07-28T12:37:52;27.50;8.30
8422;DHT22;4248;48.196;10.924;2023-07-28T12:40:18;27.40;9.40
8422;DHT22;4248;48.196;10.924;2023-07-28T12:42:47;27.50;9.40
8422;DHT22;4248;48.196;10.924;2023-07-28T12:45:14;27.50;9.10
8422;DHT22;4248;48.196;10.924;2023-07-28T12:47:41;27.70;8.10
8422;DHT22;4248;48.196;10.924;2023-07-28T12:50:07;27.60;8.90
8422;DHT22;4248;48.196;10.924;2023-07-28T12:52:33;27.40;8.40
8422;DHT22;4248;48.196;10.924;2023-07-28T12:54:58;27.10;9.20
8422;DHT22;4248;48.196;10.924;2023-07-28T12:57:25;26.90;8.50
8422;DHT22;4248;48.196;10.924;2023-07-28T12:59:50;26.90;10.40
8422;DHT22;4248;48.196;10.924;2023-07-28T13:02:17;27.00;9.60
8422;DHT22;4248;48.196;10.924;2023-07-28T13:07:08;27.20;8.20
8422;DHT22;4248;48.196;10.924;2023-07-28T13:09:34;27.10;9.50
8422;DHT22;4248;48.196;10.924;2023-07-28T13:14:25;26.50;9.70
8422;DHT22;4248;48.196;10.924;2023-07-28T13:16:51;26.30;10.20
8422;DHT22;4248;48.196;10.924;2023-07-28T13:19:16;26.10;12.10
8422;DHT22;4248;48.196;10.924;2023-07-28T13:21:42;25.90;11.50
8422;DHT22;4248;48.196;10.924;2023-07-28T13:24:08;25.70;11.90
8422;DHT22;4248;48.196;10.924;2023-07-28T13:28:59;25.40;12.10
8422;DHT22;4248;48.196;10.924;2023-07-28T13:31:27;25.20;13.20
8422;DHT22;4248;48.196;10.924;2023-07-28T13:33:53;25.10;14.40
8422;DHT22;4248;48.196;10.924;2023-07-28T13:36:18;24.60;13.70
8422;DHT22;4248;48.196;10.924;2023-07-28T13:38:44;24.60;14.60
8422;DHT22;4248;48.196;10.924;2023-07-28T13:41:10;24.50;14.50
8422;DHT22;4248;48.196;10.924;2023-07-28T13:43:35;24.40;14.50
8422;DHT22;4248;48.196;10.924;2023-07-28T13:46:03;24.40;14.00
8422;DHT22;4248;48.196;10.924;2023-07-28T13:48:30;24.40;14.10
8422;DHT22;4248;48.196;10.924;2023-07-28T13:50:56;24.40;15.00
8422;DHT22;4248;48.196;10.924;2023-07-28T13:53:23;24.50;14.60
8422;DHT22;4248;48.196;10.924;2023-07-28T13:55:48;24.80;13.90
8422;DHT22;4248;48.196;10.924;2023-07-28T13:58:14;24.80;14.80
8422;DHT22;4248;48.196;10.924;2023-07-28T14:00:39;24.80;14.70
8422;DHT22;4248;48.196;10.924;2023-07-28T14:03:05;25.10;15.00
8422;DHT22;4248;48.196;10.924;2023-07-28T14:05:30;25.40;14.60
8422;DHT22;4248;48.196;10.924;2023-07-28T14:07:56;25.60;13.50
8422;DHT22;4248;48.196;10.924;2023-07-28T14:10:22;25.80;14.20
8422;DHT22;4248;48.196;10.924;2023-07-28T14:12:49;25.80;14.10
8422;DHT22;4248;48.196;10.924;2023-07-28T14:15:15;26.00;13.80
8422;DHT22;4248;48.196;10.924;2023-07-28T14:17:40;26.00;12.70
8422;DHT22;4248;48.196;10.924;2023-07-28T14:20:06;25.80;13.90
8422;DHT22;4248;48.196;10.924;2023-07-28T14:22:32;25.90;13.80
8422;DHT22;4248;48.196;10.924;2023-07-28T14:24:58;26.00;13.80
8422;DHT22;4248;48.196;10.924;2023-07-28T14:27:23;25.60;12.50
8422;DHT22;4248;48.196;10.924;2023-07-28T14:29:49;25.90;13.70
8422;DHT22;4248;48.196;10.924;2023-07-28T14:32:14;25.90;13.60
8422;DHT22;4248;48.196;10.924;2023-07-28T14:34:40;25.90;13.70
8422;DHT22;4248;48.196;10.924;2023-07-28T14:37:06;26.10;12.80
8422;DHT22;4248;48.196;10.924;2023-07-28T14:39:31;26.10;13.60
8422;DHT22;4248;48.196;10.924;2023-07-28T14:41:57;26.20;13.40
8422;DHT22;4248;48.196;10.924;2023-07-28T14:44:23;26.30;13.30
8422;DHT22;4248;48.196;10.924;2023-07-28T14:46:48;26.40;12.50
8422;DHT22;4248;48.196;10.924;2023-07-28T14:49:14;26.30;13.50
8422;DHT22;4248;48.196;10.924;2023-07-28T14:51:39;26.20;14.00
8422;DHT22;4248;48.196;10.924;2023-07-28T14:54:05;26.20;14.20
8422;DHT22;4248;48.196;10.924;2023-07-28T14:56:31;25.90;14.30
8422;DHT22;4248;48.196;10.924;2023-07-28T14:58:57;25.80;15.30
8422;DHT22;4248;48.196;10.924;2023-07-28T15:01:23;25.80;15.30
8422;DHT22;4248;48.196;10.924;2023-07-28T15:03:49;25.90;15.40
8422;DHT22;4248;48.196;10.924;2023-07-28T15:06:14;25.80;14.40
8422;DHT22;4248;48.196;10.924;2023-07-28T15:08:40;25.70;15.40
8422;DHT22;4248;48.196;10.924;2023-07-28T15:11:07;25.60;16.10
8422;DHT22;4248;48.196;10.924;2023-07-28T15:13:32;25.50;16.60
8422;DHT22;4248;48.196;10.924;2023-07-28T15:15:58;25.50;16.20
8422;DHT22;4248;48.196;10.924;2023-07-28T15:18:23;25.50;17.20
8422;DHT22;4248;48.196;10.924;2023-07-28T15:20:49;25.30;17.40
8422;DHT22;4248;48.196;10.924;2023-07-28T15:23:15;24.90;18.40
8422;DHT22;4248;48.196;10.924;2023-07-28T15:25:40;24.60;18.90
8422;DHT22;4248;48.196;10.924;2023-07-28T15:28:12;24.50;19.70
8422;DHT22;4248;48.196;10.924;2023-07-28T15:30:38;24.40;20.20
8422;DHT22;4248;48.196;10.924;2023-07-28T15:33:03;24.40;20.60
8422;DHT22;4248;48.196;10.924;2023-07-28T15:35:29;24.20;20.20
8422;DHT22;4248;48.196;10.924;2023-07-28T15:37:54;24.20;19.50
8422;DHT22;4248;48.196;10.924;2023-07-28T15:40:20;24.10;20.50
8422;DHT22;4248;48.196;10.924;2023-07-28T15:42:46;24.10;20.60
8422;DHT22;4248;48.196;10.924;2023-07-28T15:45:12;24.00;20.90
8422;DHT22;4248;48.196;10.924;2023-07-28T15:47:38;24.00;20.50
8422;DHT22;4248;48.196;10.924;2023-07-28T15:50:04;24.00;21.80
8422;DHT22;4248;48.196;10.924;2023-07-28T15:52:33;24.00;22.10
8422;DHT22;4248;48.196;10.924;2023-07-28T15:54:58;24.00;22.50
8422;DHT22;4248;48.196;10.924;2023-07-28T15:57:24;24.00;21.70
8422;DHT22;4248;48.196;10.924;2023-07-28T15:59:50;24.10;22.30
8422;DHT22;4248;48.196;10.924;2023-07-28T16:02:15;24.20;22.30
8422;DHT22;4248;48.196;10.924;2023-07-28T16:04:41;24.10;22.70
8422;DHT22;4248;48.196;10.924;2023-07-28T16:07:07;24.00;22.40